createdAt,value
2018-07-01T09:24:10.664Z,100086.82
2018-07-01T09:26:40.134Z,100097.02
2018-07-01T09:29:09.595Z,100080.13
2018-07-01T09:31:39.337Z,100072.95
2018-07-01T09:34:08.686Z,100088.53
2018-07-01T09:36:38.149Z,100085.49
2018-07-01T09:39:10.330Z,100102.16
2018-07-01T09:42:22.461Z,100104.64
2018-07-01T09:44:51.950Z,100107.22
2018-07-01T09:47:37.134Z,100100.81
2018-07-01T09:50:06.571Z,100102.88
2018-07-01T09:52:36.143Z,100108.63
2018-07-01T09:55:06.317Z,100106.77
2018-07-01T09:57:35.833Z,100115.72
2018-07-01T10:00:05.998Z,100108.64
2018-07-01T10:02:35.367Z,100113.58
2018-07-01T10:05:05.030Z,100118.50
2018-07-01T10:07:34.431Z,100106.45
2018-07-01T10:10:04.110Z,100110.41
2018-07-01T10:12:33.560Z,100103.90
2018-07-01T10:15:02.866Z,100103.59
2018-07-01T10:17:32.479Z,100102.33
2018-07-01T10:20:01.957Z,100097.30
2018-07-01T10:22:31.672Z,100094.77
2018-07-01T10:25:01.166Z,100095.55
2018-07-01T10:27:30.777Z,100088.86
2018-07-01T10:30:00.343Z,100076.97
2018-07-01T10:32:29.965Z,100084.23
2018-07-01T10:34:59.415Z,100075.17
2018-07-01T10:37:29.070Z,100076.53
2018-07-01T10:39:59.868Z,100081.19
2018-07-01T10:42:29.442Z,100091.08
2018-07-01T10:44:58.901Z,100099.66
2018-07-01T10:47:29.433Z,100083.83
2018-07-01T10:49:58.885Z,100086.64
2018-07-01T10:52:28.328Z,100089.59
2018-07-01T10:54:57.892Z,100084.62
2018-07-01T10:57:27.178Z,100081.24
2018-07-01T10:59:56.584Z,100086.58
2018-07-01T11:02:26.010Z,100084.96
2018-07-01T11:04:55.579Z,100081.45
2018-07-01T11:07:25.186Z,100077.02
2018-07-01T11:09:54.500Z,100093.44
2018-07-01T11:12:24.129Z,100074.83
2018-07-01T11:14:53.682Z,100070.98
2018-07-01T11:17:22.919Z,100076.66
2018-07-01T11:19:52.520Z,100070.89
2018-07-01T11:22:21.961Z,100074.45
2018-07-01T11:24:51.422Z,100068.45
2018-07-01T11:27:21.047Z,100067.02
2018-07-01T11:29:50.435Z,100065.78
2018-07-01T11:32:20.104Z,100078.75
2018-07-01T11:34:50.203Z,100062.43
2018-07-01T11:37:19.618Z,100067.89
2018-07-01T11:39:49.071Z,100062.88
2018-07-01T11:42:18.702Z,100064.31
2018-07-01T11:44:48.061Z,100070.00
2018-07-01T11:47:17.513Z,100071.13
2018-07-01T11:49:47.070Z,100060.32
2018-07-01T11:52:16.690Z,100053.94
2018-07-01T11:54:46.032Z,100051.94
2018-07-01T11:57:15.583Z,100050.47
2018-07-01T11:59:45.154Z,100055.23
2018-07-01T12:02:14.667Z,100047.22
2018-07-01T12:05:02.947Z,100063.45
2018-07-01T12:07:13.580Z,100065.29
2018-07-01T12:09:43.148Z,100084.41
2018-07-01T12:12:12.825Z,100105.81
2018-07-01T12:14:42.421Z,100103.29
2018-07-01T12:17:11.942Z,100110.86
2018-07-01T12:19:41.313Z,100115.88
2018-07-01T12:22:10.641Z,100115.14
2018-07-01T12:24:40.286Z,100109.05
2018-07-01T12:27:09.894Z,100105.99
2018-07-01T12:29:40.950Z,100114.15
2018-07-01T12:32:10.528Z,100098.48
2018-07-01T12:34:40.314Z,100097.11
2018-07-01T12:37:09.640Z,100100.89
2018-07-01T12:39:39.169Z,100097.20
2018-07-01T12:42:08.681Z,100095.89
2018-07-01T12:44:38.248Z,100096.42
2018-07-01T12:47:07.800Z,100096.70
2018-07-01T12:49:37.154Z,100091.19
2018-07-01T12:52:06.625Z,100087.66
2018-07-01T12:54:36.275Z,100084.49
2018-07-01T12:57:05.745Z,100086.80
2018-07-01T12:59:35.229Z,100081.14
2018-07-01T13:02:04.975Z,100079.00
2018-07-01T13:04:34.528Z,100078.48
2018-07-01T13:07:03.974Z,100073.69
2018-07-01T13:09:33.472Z,100084.19
2018-07-01T13:12:02.984Z,100078.59
2018-07-01T13:14:32.592Z,100083.45
2018-07-01T13:17:02.183Z,100071.27
2018-07-01T13:19:31.682Z,100079.92
2018-07-01T13:22:01.282Z,100074.93
2018-07-01T13:24:30.832Z,100078.82
2018-07-01T13:27:00.342Z,100081.25
2018-07-01T13:29:29.874Z,100075.06
2018-07-01T13:31:59.359Z,100075.38
2018-07-01T13:34:28.596Z,100074.80
2018-07-01T13:36:58.144Z,100074.01
2018-07-01T13:39:27.549Z,100068.45
2018-07-01T13:41:58.598Z,100074.92
2018-07-01T13:44:28.180Z,100072.62
2018-07-01T13:46:57.600Z,100066.39
2018-07-01T13:49:27.084Z,100078.59
2018-07-01T13:51:56.630Z,100071.41
2018-07-01T13:54:26.153Z,100062.12
2018-07-01T13:56:55.596Z,100069.38
2018-07-01T13:59:25.133Z,100062.56
2018-07-01T14:01:54.520Z,100066.95
2018-07-01T14:04:24.007Z,100066.02
2018-07-01T14:06:53.580Z,100072.78
2018-07-01T14:09:23.050Z,100064.10
2018-07-01T14:11:52.451Z,100059.28
2018-07-01T14:14:21.939Z,100068.28
2018-07-01T14:16:51.441Z,100070.08
2018-07-01T14:19:20.832Z,100068.64
2018-07-01T14:21:50.373Z,100060.13
2018-07-01T14:24:19.894Z,100063.42
2018-07-01T14:26:49.388Z,100063.06
2018-07-01T14:29:18.975Z,100054.88
2018-07-01T14:31:48.365Z,100045.09
2018-07-01T14:34:17.926Z,100045.00
2018-07-01T14:36:47.985Z,100060.16
2018-07-01T14:39:17.403Z,100057.45
2018-07-01T14:41:46.873Z,100060.38
2018-07-01T14:44:16.389Z,100047.11
2018-07-01T14:46:45.882Z,100044.15
2018-07-01T14:49:15.360Z,100052.20
2018-07-01T14:51:44.846Z,100032.52
2018-07-01T14:54:14.453Z,100031.62
2018-07-01T14:56:44.858Z,100039.62
2018-07-01T14:59:14.404Z,100034.33
2018-07-01T15:01:44.126Z,100027.14
2018-07-01T15:04:13.755Z,100025.70
2018-07-01T15:06:43.389Z,100029.22
2018-07-01T15:09:13.166Z,100039.17
2018-07-01T15:11:42.597Z,100036.17
2018-07-01T15:14:12.108Z,100031.53
2018-07-01T15:16:41.476Z,100029.52
2018-07-01T15:19:11.097Z,100033.23
2018-07-01T15:21:40.667Z,100025.62
2018-07-01T15:24:10.264Z,100027.34
2018-07-01T15:26:39.673Z,100026.11
2018-07-01T15:29:09.419Z,100033.09
2018-07-01T15:31:39.868Z,100022.11
2018-07-01T15:34:09.525Z,100028.59
2018-07-01T15:36:39.078Z,100016.98
2018-07-01T15:39:10.838Z,100023.55
2018-07-01T15:41:40.304Z,100033.06
2018-07-01T15:44:09.790Z,100043.59
2018-07-01T15:46:39.581Z,100034.01
2018-07-01T15:49:09.229Z,100039.98
2018-07-01T15:51:38.707Z,100026.92
2018-07-01T15:54:08.401Z,100036.72
2018-07-01T15:56:37.956Z,100035.45
2018-07-01T15:59:07.433Z,100040.84
2018-07-01T16:01:37.085Z,100043.66
2018-07-01T16:04:06.926Z,100048.39
2018-07-01T16:06:36.317Z,100028.77
2018-07-01T16:09:08.656Z,100032.19
2018-07-01T16:11:38.273Z,100026.55
2018-07-01T16:14:07.859Z,100028.33
2018-07-01T16:16:37.290Z,100027.44
2018-07-01T16:19:07.350Z,100038.09
2018-07-01T16:21:36.782Z,100035.92
2018-07-01T16:24:06.272Z,100036.80
2018-07-01T16:26:40.783Z,100026.89
2018-07-01T16:29:10.356Z,100036.45
2018-07-01T16:31:39.822Z,100048.04
2018-07-01T16:34:09.074Z,100038.47
2018-07-01T16:36:38.777Z,100038.86
2018-07-01T16:39:11.164Z,100040.37
2018-07-01T16:41:40.811Z,100038.69
2018-07-01T16:44:10.576Z,100032.63
2018-07-01T16:46:39.924Z,100027.70
2018-07-01T16:49:09.759Z,100021.02
2018-07-01T16:51:39.513Z,100031.72
2018-07-01T16:54:08.800Z,100023.80
2018-07-01T16:56:38.323Z,100023.14
2018-07-01T16:59:07.702Z,100027.98
2018-07-01T17:01:37.226Z,100027.88
2018-07-01T17:04:06.669Z,100025.66
2018-07-01T17:06:36.134Z,100031.35
2018-07-01T17:09:07.192Z,100024.08
2018-07-01T17:11:36.638Z,100029.39
2018-07-01T17:14:06.199Z,100023.69
2018-07-01T17:16:35.598Z,100024.41
2018-07-01T17:19:04.993Z,100025.09
2018-07-01T17:21:34.419Z,100024.27
2018-07-01T17:24:04.196Z,100021.14
2018-07-01T17:26:33.532Z,100025.50
2018-07-01T17:29:02.956Z,100030.01
2018-07-01T17:31:37.570Z,100022.92
2018-07-01T17:34:07.093Z,100030.13
2018-07-01T17:36:36.648Z,100027.03
2018-07-01T17:39:08.992Z,100033.09
2018-07-01T17:41:38.969Z,100033.05
2018-07-01T17:44:08.417Z,100031.08
2018-07-01T17:46:38.069Z,100041.41
2018-07-01T17:49:07.752Z,100035.24
2018-07-01T17:51:37.210Z,100036.64
2018-07-01T17:54:06.771Z,100032.25
2018-07-01T17:56:36.073Z,100030.22
2018-07-01T17:59:05.654Z,100027.00
2018-07-01T18:01:35.006Z,100033.83
2018-07-01T18:04:04.465Z,100031.78
2018-07-01T18:06:33.884Z,100038.38
2018-07-01T18:09:03.819Z,100037.91
2018-07-01T18:11:33.239Z,100038.05
2018-07-01T18:14:02.787Z,100039.88
2018-07-01T18:16:32.288Z,100044.95
2018-07-01T18:19:01.772Z,100041.82
2018-07-01T18:21:48.145Z,100040.15
2018-07-01T18:24:27.541Z,100044.98
2018-07-01T18:26:30.400Z,100041.88
2018-07-01T18:29:08.183Z,100039.89
2018-07-01T18:31:29.773Z,100040.13
2018-07-01T18:33:59.263Z,100034.52
2018-07-01T18:36:28.737Z,100036.44
2018-07-01T18:38:58.354Z,100039.69
2018-07-01T18:41:28.039Z,100036.47
2018-07-01T18:43:57.515Z,100041.53
2018-07-01T18:46:27.119Z,100041.98
2018-07-01T18:48:56.804Z,100040.47
2018-07-01T18:51:27.309Z,100045.26
2018-07-01T18:53:57.059Z,100045.80
2018-07-01T18:56:26.499Z,100042.95
2018-07-01T18:58:55.996Z,100041.54
2018-07-01T19:01:25.556Z,100037.39
2018-07-01T19:03:55.163Z,100041.22
2018-07-01T19:06:24.697Z,100037.99
2018-07-01T19:08:54.355Z,100034.73
2018-07-01T19:11:23.979Z,100036.87
2018-07-01T19:13:53.720Z,100040.41
2018-07-01T19:16:23.080Z,100046.00
2018-07-01T19:18:52.521Z,100036.96
2018-07-01T19:21:22.056Z,100040.81
2018-07-01T19:23:51.625Z,100040.09
2018-07-01T19:26:21.462Z,100051.71
2018-07-01T19:28:51.180Z,100044.70
2018-07-01T19:31:20.696Z,100042.69
2018-07-01T19:33:50.213Z,100041.48
2018-07-01T19:36:20.506Z,100046.80
2018-07-01T19:38:49.909Z,100051.35
2018-07-01T19:41:19.536Z,100042.77
2018-07-01T19:43:49.115Z,100051.34
2018-07-01T19:46:18.866Z,100052.86
2018-07-01T19:48:48.446Z,100052.81
2018-07-01T19:51:17.921Z,100047.77
2018-07-01T19:53:47.376Z,100049.74
2018-07-01T19:56:16.883Z,100053.48
2018-07-01T19:58:46.514Z,100046.23
2018-07-01T20:01:16.216Z,100043.44
2018-07-01T20:03:45.603Z,100045.16
2018-07-01T20:06:15.144Z,100046.80
2018-07-01T20:08:44.643Z,100049.58
2018-07-01T20:11:14.296Z,100040.42
2018-07-01T20:13:43.921Z,100047.56
2018-07-01T20:16:13.253Z,100043.30
2018-07-01T20:18:42.772Z,100044.48
2018-07-01T20:21:12.379Z,100039.27
2018-07-01T20:23:41.896Z,100043.86
2018-07-01T20:26:11.514Z,100044.45
2018-07-01T20:28:41.009Z,100039.15
2018-07-01T20:31:10.455Z,100039.62
2018-07-01T20:33:39.953Z,100037.66
2018-07-01T20:36:09.596Z,100035.70
2018-07-01T20:38:39.296Z,100038.45
2018-07-01T20:41:08.961Z,100038.80
2018-07-01T20:43:38.778Z,100040.83
2018-07-01T20:46:08.545Z,100032.63
2018-07-01T20:48:38.191Z,100035.24
2018-07-01T20:51:07.691Z,100031.49
2018-07-01T20:53:37.153Z,100030.86
2018-07-01T20:56:06.781Z,100031.95
2018-07-01T20:58:36.275Z,100030.43
2018-07-01T21:01:05.759Z,100028.36
2018-07-01T21:03:35.125Z,100024.14
2018-07-01T21:06:04.604Z,100029.15
2018-07-01T21:08:34.080Z,100027.67
2018-07-01T21:11:03.808Z,100031.22
2018-07-01T21:13:33.340Z,100034.58
2018-07-01T21:16:02.765Z,100036.22
2018-07-01T21:18:32.230Z,100029.94
2018-07-01T21:21:01.862Z,100019.28
2018-07-01T21:23:31.349Z,100019.55
2018-07-01T21:26:00.848Z,100022.52
2018-07-01T21:28:30.190Z,100018.69
2018-07-01T21:30:59.770Z,100027.27
2018-07-01T21:33:29.215Z,100015.72
2018-07-01T21:35:59.088Z,100016.89
2018-07-01T21:38:28.736Z,100017.05
2018-07-01T21:40:58.236Z,100015.33
2018-07-01T21:43:27.765Z,100019.78
2018-07-01T21:45:57.088Z,100010.57
2018-07-01T21:48:26.577Z,100014.70
2018-07-01T21:50:56.133Z,100011.66
2018-07-01T21:53:25.921Z,100013.14
2018-07-01T21:55:55.451Z,100007.78
2018-07-01T21:58:24.933Z,100001.61
2018-07-01T22:00:54.506Z,100010.52
2018-07-01T22:03:23.991Z,100009.10
2018-07-01T22:05:53.526Z,100012.84
2018-07-01T22:08:22.969Z,100011.50
2018-07-01T22:12:05.171Z,100005.95
2018-07-01T22:14:39.341Z,100009.31
2018-07-01T22:17:11.742Z,100007.93
2018-07-01T22:19:41.192Z,100015.63
2018-07-01T22:22:10.700Z,100006.95
2018-07-01T22:24:40.553Z,100008.14
2018-07-01T22:27:10.105Z,100007.78
2018-07-01T22:29:39.631Z,100011.92
2018-07-01T22:32:09.221Z,100010.36
2018-07-01T22:34:38.705Z,100010.28
2018-07-01T22:37:08.192Z,100012.48
2018-07-01T22:39:37.554Z,100014.06
2018-07-01T22:42:07.384Z,100011.55
2018-07-01T22:44:36.884Z,100004.82
2018-07-01T22:47:06.558Z,100003.34
2018-07-01T22:49:36.090Z,100004.09
2018-07-01T22:52:05.600Z,100004.73
2018-07-01T22:54:35.161Z,100008.24
2018-07-01T22:57:04.482Z,100005.33
2018-07-01T22:59:33.920Z,100003.20
2018-07-01T23:03:18.435Z,100011.99
2018-07-01T23:05:47.804Z,100008.61
2018-07-01T23:08:17.371Z,100014.17
2018-07-01T23:10:46.996Z,100014.88
2018-07-01T23:13:16.504Z,100018.00
2018-07-01T23:15:45.991Z,100015.86
2018-07-01T23:18:15.487Z,100021.00
2018-07-01T23:20:45.015Z,100012.82
2018-07-01T23:23:14.631Z,100018.41
2018-07-01T23:25:44.148Z,100025.38
2018-07-01T23:28:13.613Z,100020.16
2018-07-01T23:30:43.013Z,100024.58
2018-07-01T23:33:12.488Z,100018.89
2018-07-01T23:35:41.928Z,100018.55
2018-07-01T23:38:11.173Z,100021.53
2018-07-01T23:40:40.705Z,100020.56
2018-07-01T23:43:10.117Z,100017.58
2018-07-01T23:45:40.718Z,100015.86
2018-07-01T23:48:10.470Z,100014.19
2018-07-01T23:50:40.049Z,100013.67
2018-07-01T23:53:09.537Z,100007.02
2018-07-01T23:55:38.962Z,100014.72
2018-07-01T23:58:08.614Z,100003.44
